Time;durP1;ratioP1;P1;durP2;ratioP2;P2;SDS_P1;SDS_P2;PMS_P1;PMS_P2;Temp;Humidity;BMP_temperature;BMP_pressure;BME280_temperature;BME280_humidity;BME280_pressure;Samples;Min_cycle;Max_cycle;Signal;HPM_P1;HPM_P2
2022/10/02 00:01:46;;;;;;;5.33;4.43;;;11.70;99.90;;;;;;5021015;28;20206;-69
2022/10/02 00:04:18;;;;;;;7.80;5.30;;;11.70;99.90;;;;;;5029050;28;20271;-70
2022/10/02 00:06:47;;;;;;;5.40;4.60;;;11.70;99.90;;;;;;5031822;28;20552;-70
2022/10/02 00:09:25;;;;;;;5.77;4.47;;;11.70;99.90;;;;;;5038846;28;20221;-70
2022/10/02 00:11:56;;;;;;;5.80;4.03;;;11.60;99.90;;;;;;5034021;28;20209;-70
2022/10/02 00:14:28;;;;;;;5.63;4.40;;;11.60;99.90;;;;;;5030718;28;20257;-70
2022/10/02 00:16:57;;;;;;;5.37;4.23;;;11.60;99.90;;;;;;5038629;28;20296;-70
2022/10/02 00:19:24;;;;;;;5.07;4.57;;;11.60;99.90;;;;;;5020865;28;20652;-70
2022/10/02 00:22:04;;;;;;;6.33;4.47;;;11.60;99.90;;;;;;5034695;28;20561;-70
2022/10/02 00:24:39;;;;;;;5.17;4.67;;;11.60;99.90;;;;;;5030584;28;20245;-70
2022/10/02 00:27:27;;;;;;;4.67;4.00;;;11.60;99.90;;;;;;5039541;28;20225;-70
2022/10/02 00:29:57;;;;;;;7.50;4.90;;;11.60;99.90;;;;;;5019115;28;20221;-70
2022/10/02 00:32:30;;;;;;;5.93;4.77;;;11.60;99.90;;;;;;5028612;28;20209;-71
2022/10/02 00:35:27;;;;;;;6.10;4.77;;;11.60;99.90;;;;;;5016743;28;20206;-70
2022/10/02 00:38:01;;;;;;;4.80;4.17;;;11.50;99.90;;;;;;5033309;28;20210;-70
2022/10/02 00:40:49;;;;;;;6.07;5.47;;;11.60;99.90;;;;;;5028774;28;20674;-70
2022/10/02 00:43:26;;;;;;;6.13;5.47;;;11.60;99.90;;;;;;5028376;28;20207;-70
2022/10/02 00:46:39;;;;;;;7.33;5.43;;;11.60;99.90;;;;;;5034658;28;20355;-70
2022/10/02 00:49:28;;;;;;;8.90;5.90;;;11.60;99.90;;;;;;5021468;28;20210;-69
2022/10/02 00:52:12;;;;;;;7.10;5.90;;;11.60;99.90;;;;;;5018146;28;20214;-69
2022/10/02 00:54:56;;;;;;;6.63;5.83;;;11.60;99.90;;;;;;5020953;28;20691;-70
2022/10/02 00:57:35;;;;;;;8.37;5.60;;;11.60;99.90;;;;;;5032651;28;20587;-70
2022/10/02 01:00:06;;;;;;;7.87;6.10;;;11.60;99.90;;;;;;5019614;28;20309;-69
2022/10/02 01:03:06;;;;;;;7.43;5.77;;;11.50;99.90;;;;;;5030814;28;20214;-70
2022/10/02 01:05:33;;;;;;;7.60;5.20;;;11.50;99.90;;;;;;5041747;28;20218;-70
2022/10/02 01:08:01;;;;;;;7.47;6.07;;;11.50;99.90;;;;;;5027957;28;20699;-69
2022/10/02 01:10:29;;;;;;;10.63;5.70;;;11.50;99.90;;;;;;5023883;28;20207;-70
2022/10/02 01:12:58;;;;;;;9.03;6.27;;;11.50;99.90;;;;;;5019005;28;20226;-68
2022/10/02 01:15:30;;;;;;;7.77;6.57;;;11.50;99.90;;;;;;5034586;28;20269;-69
2022/10/02 01:17:57;;;;;;;8.30;6.03;;;11.50;99.90;;;;;;5029045;28;20249;-68
2022/10/02 01:20:31;;;;;;;6.53;5.87;;;11.50;99.90;;;;;;5027146;28;20206;-69
2022/10/02 01:23:05;;;;;;;7.03;6.00;;;11.50;99.90;;;;;;5027051;28;20241;-70
2022/10/02 01:25:33;;;;;;;7.33;6.57;;;11.50;99.90;;;;;;5032330;28;20249;-69
2022/10/02 01:28:01;;;;;;;7.87;6.27;;;11.50;99.90;;;;;;5033072;28;20210;-69
2022/10/02 01:30:29;;;;;;;8.43;6.10;;;11.50;99.90;;;;;;5031208;28;20209;-70
2022/10/02 01:32:58;;;;;;;8.23;6.70;;;11.50;99.90;;;;;;5025794;28;20204;-69
2022/10/02 01:35:30;;;;;;;10.30;7.23;;;11.50;99.90;;;;;;5029442;28;20785;-69
2022/10/02 01:37:59;;;;;;;8.77;6.40;;;11.50;99.90;;;;;;5020936;28;20195;-69
2022/10/02 01:40:28;;;;;;;9.57;6.73;;;11.50;99.90;;;;;;5021910;28;20238;-69
2022/10/02 01:43:00;;;;;;;7.23;6.53;;;11.50;99.90;;;;;;5025807;28;20215;-70
2022/10/02 01:45:39;;;;;;;7.43;6.27;;;11.60;99.90;;;;;;5028575;28;20655;-70
2022/10/02 01:48:13;;;;;;;7.87;6.67;;;11.60;99.90;;;;;;5034550;28;20207;-70
2022/10/02 01:50:48;;;;;;;8.47;6.90;;;11.60;99.90;;;;;;5024732;28;20206;-71
2022/10/02 01:53:22;;;;;;;8.73;6.80;;;11.60;99.90;;;;;;5022840;28;20335;-70
2022/10/02 01:55:59;;;;;;;8.77;7.00;;;11.60;99.90;;;;;;5021131;28;20199;-71
2022/10/02 01:58:37;;;;;;;7.77;6.40;;;11.60;99.90;;;;;;5021185;28;20207;-69
2022/10/02 02:01:14;;;;;;;9.03;6.60;;;11.60;99.90;;;;;;5026972;28;20221;-69
2022/10/02 02:03:50;;;;;;;8.77;6.87;;;11.60;99.90;;;;;;5023727;28;20207;-69
2022/10/02 02:06:26;;;;;;;7.23;6.53;;;11.60;99.90;;;;;;5022673;28;20220;-70
2022/10/02 02:09:02;;;;;;;8.17;5.83;;;11.60;99.90;;;;;;5025421;28;20206;-70
2022/10/02 02:11:29;;;;;;;7.53;6.40;;;11.50;99.90;;;;;;5017001;28;20289;-70
2022/10/02 02:14:03;;;;;;;7.83;6.73;;;11.60;99.90;;;;;;5027548;28;20577;-70
2022/10/02 02:16:35;;;;;;;7.87;6.53;;;11.60;99.90;;;;;;5021539;28;20203;-69
2022/10/02 02:19:07;;;;;;;8.03;6.43;;;11.60;99.90;;;;;;5025602;28;20233;-71
2022/10/02 02:21:37;;;;;;;9.20;6.10;;;11.60;99.90;;;;;;5022475;28;20211;-70
2022/10/02 02:24:09;;;;;;;7.40;6.30;;;11.60;99.90;;;;;;5031158;28;20664;-70
2022/10/02 02:26:36;;;;;;;7.83;6.53;;;11.60;99.90;;;;;;5031608;28;20230;-70
2022/10/02 02:29:08;;;;;;;7.80;6.10;;;11.70;99.90;;;;;;5030786;28;20210;-70
2022/10/02 02:31:40;;;;;;;6.80;5.87;;;11.60;99.90;;;;;;5012047;28;20587;-70
2022/10/02 02:34:11;;;;;;;7.23;6.40;;;11.60;99.90;;;;;;5021649;28;20210;-70
2022/10/02 02:36:42;;;;;;;7.73;6.63;;;11.70;99.90;;;;;;5025070;28;20207;-70
2022/10/02 02:39:12;;;;;;;7.07;6.47;;;11.70;99.90;;;;;;5017483;28;20586;-69
2022/10/02 02:41:43;;;;;;;7.23;6.13;;;11.70;99.90;;;;;;5024862;28;20198;-70
2022/10/02 02:44:17;;;;;;;7.10;6.40;;;11.70;99.90;;;;;;5031757;28;20726;-70
2022/10/02 02:47:05;;;;;;;8.47;6.97;;;11.70;99.90;;;;;;5029083;28;20727;-69
2022/10/02 02:49:38;;;;;;;8.93;7.63;;;11.70;99.90;;;;;;5030152;28;20199;-69
2022/10/02 02:52:10;;;;;;;8.07;7.00;;;11.70;99.90;;;;;;5031440;28;20214;-69
2022/10/02 02:54:42;;;;;;;8.87;6.53;;;11.70;99.90;;;;;;5022768;28;20207;-69
2022/10/02 02:57:11;;;;;;;10.30;6.90;;;11.70;99.90;;;;;;5023502;28;20314;-70
2022/10/02 02:59:44;;;;;;;8.57;6.90;;;11.70;99.90;;;;;;5016050;28;20206;-69
2022/10/02 03:02:11;;;;;;;8.90;6.93;;;11.70;99.90;;;;;;5023535;28;20225;-70
2022/10/02 03:04:38;;;;;;;8.30;6.90;;;11.70;99.90;;;;;;5019487;28;20652;-69
2022/10/02 03:07:05;;;;;;;8.50;7.07;;;11.70;99.90;;;;;;5022006;28;20227;-70
2022/10/02 03:09:33;;;;;;;8.67;7.80;;;11.70;99.90;;;;;;5038031;28;20210;-70
2022/10/02 03:12:12;;;;;;;7.97;7.00;;;11.60;99.90;;;;;;5030508;28;20260;-70
2022/10/02 03:15:01;;;;;;;10.33;7.70;;;11.70;99.90;;;;;;5030090;28;20209;-69
2022/10/02 03:17:40;;;;;;;10.23;8.57;;;11.60;99.90;;;;;;5026391;28;20200;-70
2022/10/02 03:20:15;;;;;;;8.30;7.50;;;11.60;99.90;;;;;;5024372;28;20765;-69
2022/10/02 03:22:51;;;;;;;8.17;7.47;;;11.70;99.90;;;;;;5028418;28;20230;-69
2022/10/02 03:25:22;;;;;;;7.50;6.70;;;11.60;99.90;;;;;;5032389;28;20558;-70
2022/10/02 03:27:56;;;;;;;8.60;7.00;;;11.60;99.90;;;;;;5021964;28;20225;-70
2022/10/02 03:30:25;;;;;;;8.13;7.33;;;11.60;99.90;;;;;;5030504;28;20209;-69
2022/10/02 03:32:55;;;;;;;9.07;7.63;;;11.60;99.90;;;;;;5024921;28;20211;-70
2022/10/02 03:35:23;;;;;;;8.50;7.57;;;11.60;99.90;;;;;;5030027;28;20243;-69
2022/10/02 03:37:52;;;;;;;8.37;7.53;;;11.60;99.90;;;;;;5025709;28;20210;-69
2022/10/02 03:40:23;;;;;;;8.90;8.00;;;11.60;99.90;;;;;;5021009;28;20213;-69
2022/10/02 03:42:50;;;;;;;8.93;8.03;;;11.60;99.90;;;;;;5026353;28;20207;-71
2022/10/02 03:45:17;;;;;;;9.20;8.30;;;11.60;99.90;;;;;;5026532;28;20288;-70
2022/10/02 03:47:45;;;;;;;8.27;7.40;;;11.70;99.90;;;;;;5027377;28;20235;-70
2022/10/02 03:50:12;;;;;;;8.63;7.73;;;11.60;99.90;;;;;;5022066;28;20709;-70
2022/10/02 03:52:40;;;;;;;9.20;7.60;;;11.60;99.90;;;;;;5024772;28;20214;-69
2022/10/02 03:55:20;;;;;;;7.87;7.13;;;11.60;99.90;;;;;;5029965;28;20222;-69
2022/10/02 03:57:47;;;;;;;10.73;8.73;;;11.60;99.90;;;;;;5013872;28;20198;-70
2022/10/02 04:00:19;;;;;;;12.07;10.40;;;11.70;99.90;;;;;;5011123;28;20215;-69
2022/10/02 04:02:52;;;;;;;8.57;7.53;;;11.60;99.90;;;;;;5030613;28;20268;-71
2022/10/02 04:05:23;;;;;;;10.03;7.90;;;11.60;99.90;;;;;;5020993;28;20211;-70
2022/10/02 04:07:54;;;;;;;10.23;8.17;;;11.60;99.90;;;;;;5020725;28;20207;-69
2022/10/02 04:10:30;;;;;;;8.70;7.87;;;11.60;99.90;;;;;;5016840;28;20677;-70
2022/10/02 04:13:04;;;;;;;9.00;8.07;;;11.60;99.90;;;;;;5026159;28;20209;-69
2022/10/02 04:15:36;;;;;;;10.43;8.60;;;11.60;99.90;;;;;;5031033;28;20205;-70
2022/10/02 04:18:10;;;;;;;9.53;8.63;;;11.60;99.90;;;;;;5027449;28;20207;-69
2022/10/02 04:20:44;;;;;;;9.73;8.40;;;11.70;99.90;;;;;;5020157;28;20210;-70
2022/10/02 04:23:17;;;;;;;10.27;9.17;;;11.70;99.90;;;;;;5026189;28;20641;-69
2022/10/02 04:25:51;;;;;;;10.67;9.20;;;11.60;99.90;;;;;;5022762;28;20206;-70
2022/10/02 04:28:24;;;;;;;10.23;9.10;;;11.60;99.90;;;;;;5024229;28;20598;-70
2022/10/02 04:30:52;;;;;;;9.70;8.77;;;11.60;99.90;;;;;;5023963;28;20203;-69
2022/10/02 04:33:22;;;;;;;10.67;8.63;;;11.70;99.90;;;;;;5028557;28;20648;-69
2022/10/02 04:36:00;;;;;;;10.13;8.87;;;11.60;99.90;;;;;;5024761;28;20652;-69
2022/10/02 04:38:40;;;;;;;9.77;8.77;;;11.60;99.90;;;;;;5029352;28;20239;-69
2022/10/02 04:41:19;;;;;;;10.73;8.77;;;11.60;99.90;;;;;;5025642;28;20211;-69
2022/10/02 04:43:59;;;;;;;10.07;9.07;;;11.60;99.90;;;;;;5013335;28;20206;-69
2022/10/02 04:46:43;;;;;;;13.30;10.40;;;11.60;99.90;;;;;;5022884;28;20683;-70
2022/10/02 04:49:24;;;;;;;9.83;8.93;;;11.60;99.90;;;;;;5022812;28;20428;-69
2022/10/02 04:52:07;;;;;;;10.63;9.53;;;11.60;99.90;;;;;;5018474;28;20613;-70
2022/10/02 04:54:51;;;;;;;9.87;8.87;;;11.60;99.90;;;;;;5025837;28;20561;-69
2022/10/02 04:57:35;;;;;;;10.00;9.07;;;11.60;99.90;;;;;;5036219;28;20238;-70
2022/10/02 05:00:08;;;;;;;10.60;9.53;;;11.70;99.90;;;;;;5038325;28;20203;-69
2022/10/02 05:02:47;;;;;;;10.63;9.57;;;11.70;99.90;;;;;;5022552;28;20214;-70
2022/10/02 05:05:23;;;;;;;9.90;8.90;;;11.70;99.90;;;;;;5032683;28;20599;-70
2022/10/02 05:08:04;;;;;;;10.60;9.57;;;11.70;99.90;;;;;;5023557;28;20807;-69
2022/10/02 05:11:03;;;;;;;9.60;8.63;;;11.70;99.90;;;;;;5033086;28;20198;-68
2022/10/02 05:13:51;;;;;;;10.53;9.53;;;11.70;99.90;;;;;;5018890;28;20222;-68
2022/10/02 05:16:32;;;;;;;10.63;9.53;;;11.70;99.90;;;;;;5030350;28;20207;-69
2022/10/02 05:19:15;;;;;;;10.63;9.53;;;11.70;99.90;;;;;;5025314;28;20590;-68
2022/10/02 05:22:02;;;;;;;9.63;8.70;;;11.70;99.90;;;;;;5016693;28;20198;-70
2022/10/02 05:24:52;;;;;;;10.10;9.03;;;11.70;99.90;;;;;;5027176;28;20239;-70
2022/10/02 05:27:41;;;;;;;10.30;9.30;;;11.70;99.90;;;;;;5015971;28;20226;-70
2022/10/02 05:30:11;;;;;;;9.97;8.97;;;11.70;99.90;;;;;;5025626;28;20209;-70
2022/10/02 05:33:02;;;;;;;9.23;8.10;;;11.80;99.90;;;;;;5022111;28;20196;-70
2022/10/02 05:35:44;;;;;;;9.53;8.63;;;11.80;99.90;;;;;;5026964;28;20731;-71
2022/10/02 05:38:22;;;;;;;9.17;8.27;;;11.80;99.90;;;;;;5017539;28;20202;-71
2022/10/02 05:40:57;;;;;;;9.70;8.90;;;11.80;99.90;;;;;;5030071;28;20581;-72
2022/10/02 05:43:31;;;;;;;9.23;8.37;;;11.80;99.90;;;;;;5030585;28;20667;-71
2022/10/02 05:46:02;;;;;;;9.60;8.50;;;11.80;99.90;;;;;;5032402;28;20221;-72
2022/10/02 05:48:34;;;;;;;9.70;8.70;;;11.80;99.90;;;;;;5028441;28;20211;-72
2022/10/02 05:51:10;;;;;;;10.00;8.97;;;11.90;99.90;;;;;;5030546;28;20205;-71
2022/10/02 05:53:43;;;;;;;9.90;9.00;;;11.80;99.90;;;;;;5030260;28;20217;-72
2022/10/02 05:56:15;;;;;;;10.37;9.20;;;11.80;99.90;;;;;;5033560;28;20531;-70
2022/10/02 05:58:50;;;;;;;9.87;8.87;;;11.90;99.90;;;;;;5031815;28;20266;-75
2022/10/02 06:01:22;;;;;;;9.53;8.53;;;11.80;99.90;;;;;;5033164;28;20202;-74
2022/10/02 06:03:55;;;;;;;8.53;7.73;;;11.80;99.90;;;;;;5033337;28;20218;-74
2022/10/02 06:06:30;;;;;;;8.73;7.83;;;11.80;99.90;;;;;;5033502;28;20341;-73
2022/10/02 06:09:03;;;;;;;9.03;8.17;;;11.90;99.90;;;;;;5026051;28;20202;-75
2022/10/02 06:11:35;;;;;;;9.10;8.30;;;11.80;99.90;;;;;;5032550;28;20210;-74
2022/10/02 06:14:09;;;;;;;10.93;8.13;;;11.90;99.90;;;;;;5031760;28;20206;-74
2022/10/02 06:16:41;;;;;;;8.93;8.03;;;11.90;99.90;;;;;;5028572;28;20289;-75
2022/10/02 06:19:12;;;;;;;8.83;8.03;;;11.90;99.90;;;;;;5033411;28;20215;-74
2022/10/02 06:21:46;;;;;;;9.20;8.30;;;11.90;99.90;;;;;;5023554;28;20211;-75
2022/10/02 06:24:21;;;;;;;9.80;8.80;;;12.00;99.90;;;;;;5018497;28;20332;-74
2022/10/02 06:26:53;;;;;;;8.90;8.10;;;12.00;99.90;;;;;;5029171;28;20198;-75
2022/10/02 06:29:28;;;;;;;9.20;8.17;;;12.00;99.90;;;;;;5017410;28;20664;-73
2022/10/02 06:32:11;;;;;;;9.43;8.40;;;12.00;99.90;;;;;;5028234;28;20260;-75
2022/10/02 06:34:38;;;;;;;8.83;8.00;;;12.00;99.90;;;;;;5025208;28;20215;-75
2022/10/02 06:37:30;;;;;;;8.83;8.00;;;12.00;99.90;;;;;;5027264;28;20210;-74
2022/10/02 06:40:42;;;;;;;9.40;8.43;;;12.00;99.90;;;;;;5034765;28;20222;-72
2022/10/02 06:43:24;;;;;;;8.13;7.40;;;12.10;99.90;;;;;;4985951;28;20204;-71
2022/10/02 06:45:59;;;;;;;8.80;7.77;;;12.10;99.90;;;;;;5010482;28;20218;-70
2022/10/02 06:48:39;;;;;;;7.77;6.80;;;12.20;99.90;;;;;;5024328;28;20678;-69
2022/10/02 06:51:15;;;;;;;7.97;7.27;;;12.20;99.90;;;;;;5020186;28;20213;-71
2022/10/02 06:53:57;;;;;;;6.50;5.90;;;12.30;99.90;;;;;;5029134;28;20716;-69
2022/10/02 06:56:37;;;;;;;6.67;5.93;;;12.40;99.90;;;;;;5028097;28;20215;-70
2022/10/02 06:59:19;;;;;;;6.00;5.50;;;12.40;99.90;;;;;;5020059;28;20203;-68
2022/10/02 07:01:57;;;;;;;5.87;5.20;;;12.40;99.90;;;;;;5022991;28;20551;-69
2022/10/02 07:04:34;;;;;;;5.60;5.10;;;12.40;99.90;;;;;;5028597;28;20220;-69
2022/10/02 07:07:19;;;;;;;6.47;5.77;;;12.40;99.90;;;;;;5027574;28;20282;-70
2022/10/02 07:10:06;;;;;;;5.80;5.13;;;12.40;99.90;;;;;;5026639;28;20222;-69
2022/10/02 07:13:01;;;;;;;6.43;5.83;;;12.40;99.90;;;;;;5026440;28;20806;-69
2022/10/02 07:15:52;;;;;;;5.63;5.03;;;12.40;99.90;;;;;;5021422;28;20223;-69
2022/10/02 07:18:31;;;;;;;5.47;4.83;;;12.40;99.90;;;;;;5030209;28;20578;-69
2022/10/02 07:21:07;;;;;;;5.80;4.90;;;12.40;99.90;;;;;;5017654;28;20282;-71
2022/10/02 07:23:44;;;;;;;5.90;5.30;;;12.40;99.90;;;;;;5022397;28;20236;-71
2022/10/02 07:26:35;;;;;;;5.67;5.17;;;12.40;99.90;;;;;;5025335;28;20206;-69
2022/10/02 07:29:16;;;;;;;6.17;5.27;;;12.40;99.90;;;;;;5024406;28;20215;-70
2022/10/02 07:31:54;;;;;;;10.00;6.00;;;12.40;99.90;;;;;;5027068;28;24009;-69
2022/10/02 07:34:35;;;;;;;6.03;5.10;;;12.50;99.90;;;;;;5014709;28;20219;-72
2022/10/02 07:37:12;;;;;;;5.90;5.20;;;12.50;99.90;;;;;;5027369;28;20203;-72
2022/10/02 07:39:51;;;;;;;6.10;4.47;;;12.60;99.90;;;;;;5025148;28;20210;-73
2022/10/02 07:42:42;;;;;;;5.60;4.50;;;12.60;99.90;;;;;;5018293;28;20594;-73
2022/10/02 07:45:37;;;;;;;5.23;4.73;;;12.60;99.90;;;;;;5025127;28;20222;-72
2022/10/02 07:48:41;;;;;;;7.93;4.50;;;12.70;99.90;;;;;;5027466;28;20218;-72
2022/10/02 07:54:29;;;;;;;6.47;3.70;;;12.80;99.90;;;;;;5033571;28;20695;-72
2022/10/02 07:57:00;;;;;;;4.03;3.53;;;12.80;99.90;;;;;;5028342;28;20198;-70
2022/10/02 07:59:31;;;;;;;5.20;3.27;;;12.80;99.90;;;;;;5026100;28;20207;-76
2022/10/02 08:01:59;;;;;;;3.77;3.17;;;12.80;99.90;;;;;;5029556;28;20203;-74
2022/10/02 08:04:31;;;;;;;4.10;3.53;;;12.80;99.90;;;;;;5032367;28;20648;-75
2022/10/02 08:07:00;;;;;;;3.90;3.13;;;12.90;99.90;;;;;;5026287;28;20214;-71
2022/10/02 08:09:33;;;;;;;3.17;2.70;;;12.90;99.90;;;;;;5018084;28;20696;-70
2022/10/02 08:12:05;;;;;;;5.07;2.97;;;12.80;99.90;;;;;;5023573;28;20207;-71
2022/10/02 08:14:39;;;;;;;7.67;3.00;;;12.90;99.90;;;;;;5026279;28;20226;-71
2022/10/02 08:17:11;;;;;;;5.47;2.83;;;12.80;99.90;;;;;;5031588;28;20202;-71
2022/10/02 08:19:45;;;;;;;4.30;2.63;;;12.90;99.90;;;;;;5030004;28;20206;-72
2022/10/02 08:22:22;;;;;;;5.57;2.70;;;12.90;99.90;;;;;;5022662;28;20230;-71
2022/10/02 08:24:53;;;;;;;7.63;2.67;;;12.90;99.90;;;;;;5029827;28;20237;-72
2022/10/02 08:27:24;;;;;;;3.00;2.33;;;12.90;99.90;;;;;;5037800;28;20202;-71
2022/10/02 08:29:55;;;;;;;4.07;2.07;;;12.90;99.90;;;;;;5016654;28;20207;-72
2022/10/02 08:32:24;;;;;;;3.63;2.30;;;12.90;99.90;;;;;;5023138;28;20294;-70
2022/10/02 08:34:53;;;;;;;5.13;2.40;;;12.90;99.90;;;;;;5025363;28;20223;-70
2022/10/02 08:37:31;;;;;;;4.10;2.07;;;12.90;99.90;;;;;;5030620;28;20207;-71
2022/10/02 08:40:40;;;;;;;3.30;2.23;;;12.90;99.90;;;;;;5019463;28;20222;-71
2022/10/02 08:43:37;;;;;;;3.57;2.17;;;13.00;99.90;;;;;;5025639;28;20211;-72
2022/10/02 08:46:30;;;;;;;3.03;1.83;;;13.00;99.90;;;;;;5031283;28;20293;-71
2022/10/02 08:49:47;;;;;;;5.77;2.20;;;13.10;99.90;;;;;;5029972;28;20234;-72
2022/10/02 08:52:51;;;;;;;5.50;2.43;;;13.10;99.90;;;;;;5028516;28;20659;-73
2022/10/02 08:55:49;;;;;;;6.10;2.90;;;13.30;99.90;;;;;;5007876;28;20306;-73
2022/10/02 08:58:56;;;;;;;5.20;2.60;;;13.40;99.90;;;;;;5031065;28;20226;-72
2022/10/02 09:01:49;;;;;;;5.23;2.00;;;13.60;99.90;;;;;;5032111;28;20702;-71
2022/10/02 09:04:59;;;;;;;4.53;1.90;;;13.80;99.90;;;;;;5030266;28;20213;-71
2022/10/02 09:08:07;;;;;;;2.57;1.80;;;14.00;99.90;;;;;;4996226;28;20210;-71
2022/10/02 09:11:08;;;;;;;7.10;2.00;;;14.20;99.90;;;;;;5039015;28;20256;-72
2022/10/02 09:14:09;;;;;;;9.33;2.63;;;14.40;99.90;;;;;;5030848;28;20561;-73
2022/10/02 09:16:51;;;;;;;5.10;2.00;;;14.70;99.90;;;;;;5023415;28;20217;-72
2022/10/02 09:19:39;;;;;;;3.87;2.00;;;15.50;99.90;;;;;;5024381;28;20214;-76
2022/10/02 09:22:18;;;;;;;4.13;1.80;;;16.00;99.90;;;;;;5029798;28;20245;-74
2022/10/02 09:25:01;;;;;;;4.63;1.70;;;16.40;99.90;;;;;;5024471;28;20691;-73
2022/10/02 09:28:09;;;;;;;6.90;1.67;;;16.40;99.90;;;;;;5033754;28;20202;-74
2022/10/02 09:31:08;;;;;;;3.90;1.67;;;16.30;99.90;;;;;;5029783;28;20556;-72
2022/10/02 09:34:11;;;;;;;5.30;1.73;;;16.00;99.90;;;;;;5023253;28;20210;-76
2022/10/02 09:37:12;;;;;;;8.53;2.23;;;15.80;99.90;;;;;;5031304;28;20606;-71
2022/10/02 09:40:07;;;;;;;4.20;1.50;;;15.60;99.90;;;;;;5024033;28;20214;-76
2022/10/02 09:43:09;;;;;;;4.90;1.57;;;15.40;99.90;;;;;;5012382;28;20608;-72
2022/10/02 09:46:29;;;;;;;5.43;1.93;;;15.10;99.90;;;;;;5026718;28;20294;-72
2022/10/02 09:49:25;;;;;;;6.13;1.37;;;15.20;99.90;;;;;;5020404;28;20229;-73
2022/10/02 09:52:28;;;;;;;4.53;1.77;;;18.10;99.90;;;;;;5021279;28;20707;-71
2022/10/02 09:55:26;;;;;;;2.83;1.10;;;21.60;99.90;;;;;;5020495;28;20209;-73
2022/10/02 09:58:11;;;;;;;3.88;1.20;;;24.80;99.90;;;;;;5019121;28;20607;-74
2022/10/02 10:01:24;;;;;;;2.90;1.42;;;25.90;90.70;;;;;;5020219;28;20564;-73
2022/10/02 10:04:27;;;;;;;3.47;1.50;;;25.80;91.10;;;;;;5016456;28;20305;-73
2022/10/02 10:07:42;;;;;;;2.95;1.45;;;27.50;81.40;;;;;;5013447;28;20239;-73
2022/10/02 10:10:41;;;;;;;3.42;1.40;;;28.40;72.70;;;;;;5006755;28;20221;-73
2022/10/02 10:13:50;;;;;;;4.00;1.48;;;27.60;67.00;;;;;;5030142;28;20207;-73
2022/10/02 10:16:56;;;;;;;3.50;1.08;;;26.50;68.00;;;;;;5020060;28;20575;-73
2022/10/02 10:19:49;;;;;;;3.25;1.33;;;24.90;69.40;;;;;;5026385;28;20207;-73
2022/10/02 10:22:40;;;;;;;4.47;1.23;;;23.30;72.60;;;;;;5021694;28;20897;-74
2022/10/02 10:25:33;;;;;;;4.35;1.73;;;22.40;85.10;;;;;;5026292;28;20711;-73
2022/10/02 10:28:32;;;;;;;5.05;1.33;;;22.00;79.40;;;;;;5033530;28;20258;-74
2022/10/02 10:31:36;;;;;;;5.95;1.55;;;21.40;79.50;;;;;;5024084;28;20211;-75
2022/10/02 10:34:48;;;;;;;2.58;0.90;;;20.50;81.70;;;;;;5017509;28;20320;-73
2022/10/02 10:40:42;;;;;;;1.77;1.00;;;20.80;92.80;;;;;;5019671;28;20201;-73
2022/10/02 10:43:35;;;;;;;3.88;1.27;;;22.40;86.20;;;;;;5021012;28;20215;-73
2022/10/02 10:46:24;;;;;;;3.35;1.10;;;23.50;85.10;;;;;;5019561;28;20665;-73
2022/10/02 10:49:11;;;;;;;2.05;0.80;;;24.80;73.90;;;;;;5015029;28;20234;-73
2022/10/02 10:51:46;;;;;;;4.47;1.65;;;25.80;67.40;;;;;;5026769;28;20230;-73
2022/10/02 10:54:48;;;;;;;2.25;0.98;;;26.70;66.80;;;;;;5024787;28;20218;-74
2022/10/02 10:57:40;;;;;;;2.33;1.02;;;26.10;63.40;;;;;;5025628;28;20210;-73
2022/10/02 11:00:17;;;;;;;3.60;1.05;;;24.60;66.00;;;;;;5022193;28;20202;-74
2022/10/02 11:03:26;;;;;;;3.05;1.30;;;22.90;71.20;;;;;;5026063;28;20671;-73
2022/10/02 11:06:31;;;;;;;5.38;1.67;;;21.50;77.20;;;;;;5014961;28;20213;-74
2022/10/02 11:09:29;;;;;;;3.30;1.60;;;20.10;83.70;;;;;;5001852;28;20246;-74
2022/10/02 11:12:20;;;;;;;2.38;1.17;;;19.00;90.00;;;;;;5029368;28;20214;-74
2022/10/02 11:15:04;;;;;;;5.65;1.75;;;18.20;92.20;;;;;;5016569;28;20213;-72
2022/10/02 11:17:50;;;;;;;3.45;1.65;;;18.30;99.90;;;;;;5019720;28;20651;-73
2022/10/02 11:20:49;;;;;;;2.72;1.33;;;21.70;99.90;;;;;;5024375;28;20198;-74
2022/10/02 11:23:39;;;;;;;7.07;1.75;;;26.30;91.90;;;;;;5015205;28;20300;-74
2022/10/02 11:26:29;;;;;;;3.15;1.20;;;28.60;71.20;;;;;;5028584;28;20573;-74
2022/10/02 11:29:33;;;;;;;4.32;1.90;;;27.60;66.90;;;;;;5028702;28;20214;-73
2022/10/02 11:32:48;;;;;;;2.80;1.60;;;25.60;71.40;;;;;;5015894;28;20527;-73
2022/10/02 11:35:25;;;;;;;2.97;1.27;;;23.80;75.40;;;;;;5022659;28;20238;-73
2022/10/02 11:38:18;;;;;;;3.10;1.25;;;22.40;79.70;;;;;;5015218;28;20202;-74
2022/10/02 11:41:05;;;;;;;5.22;1.40;;;21.20;83.80;;;;;;5018530;28;20261;-73
2022/10/02 11:43:58;;;;;;;3.95;1.50;;;20.30;87.00;;;;;;5028384;28;20284;-73
2022/10/02 11:46:51;;;;;;;3.95;2.30;;;19.50;90.20;;;;;;5025627;28;20590;-74
2022/10/02 11:49:40;;;;;;;4.13;2.38;;;18.80;92.10;;;;;;4998289;28;20756;-74
2022/10/02 11:52:32;;;;;;;3.45;1.60;;;18.40;93.70;;;;;;5025136;28;20241;-74
2022/10/02 11:55:21;;;;;;;2.63;1.35;;;18.10;94.50;;;;;;5025308;28;20223;-74
2022/10/02 11:58:00;;;;;;;2.30;1.20;;;17.70;95.50;;;;;;5013542;28;20219;-73
2022/10/02 12:01:07;;;;;;;2.72;1.42;;;17.40;96.70;;;;;;5019601;28;20198;-74
2022/10/02 12:03:47;;;;;;;2.88;1.23;;;17.10;97.80;;;;;;5023988;28;20207;-72
2022/10/02 12:06:25;;;;;;;2.45;1.50;;;16.70;99.00;;;;;;5022724;28;20218;-73
2022/10/02 12:09:02;;;;;;;3.17;1.20;;;16.50;99.90;;;;;;5014245;28;20222;-74
2022/10/02 12:11:39;;;;;;;1.83;1.38;;;16.40;99.90;;;;;;5026064;28;20266;-73
2022/10/02 12:14:21;;;;;;;2.22;1.13;;;16.30;99.90;;;;;;5029325;28;20214;-73
2022/10/02 12:17:04;;;;;;;3.25;1.15;;;16.10;99.90;;;;;;5030433;28;20305;-73
2022/10/02 12:26:57;;;;;;;1.87;1.33;;;15.80;99.90;;;;;;5022696;28;20647;-75
2022/10/02 12:28:29;;;;;;;2.87;1.43;;;15.00;99.90;;;;;;5015123;28;20273;-74
2022/10/02 12:31:04;;;;;;;3.60;1.67;;;14.80;99.90;;;;;;5023036;28;20217;-74
2022/10/02 12:33:42;;;;;;;2.37;1.27;;;14.80;99.90;;;;;;5029997;28;20214;-73
2022/10/02 12:36:28;;;;;;;2.30;1.50;;;14.80;99.90;;;;;;5029241;28;20692;-74
2022/10/02 12:39:07;;;;;;;3.93;1.40;;;14.90;99.90;;;;;;5024478;28;20218;-74
2022/10/02 12:41:54;;;;;;;3.13;1.40;;;15.50;99.90;;;;;;5024874;28;20293;-73
2022/10/02 12:44:35;;;;;;;7.93;2.53;;;15.90;99.90;;;;;;5021622;28;20222;-74
2022/10/02 12:47:22;;;;;;;3.47;1.30;;;16.00;99.90;;;;;;5014035;28;20633;-74
2022/10/02 12:50:04;;;;;;;11.23;2.10;;;15.90;99.90;;;;;;5014250;28;20558;-74
2022/10/02 12:53:10;;;;;;;5.40;1.67;;;15.60;99.90;;;;;;5028482;28;20222;-73
2022/10/02 12:56:04;;;;;;;5.60;1.90;;;15.40;99.90;;;;;;5019698;28;20215;-73
2022/10/02 12:58:45;;;;;;;3.40;1.80;;;15.20;99.90;;;;;;5024470;28;20210;-73
2022/10/02 13:01:39;;;;;;;5.80;2.00;;;15.10;99.90;;;;;;5027276;28;20210;-74
2022/10/02 13:04:38;;;;;;;7.37;2.00;;;15.00;99.90;;;;;;5020152;28;20209;-73
2022/10/02 13:07:29;;;;;;;4.90;1.93;;;14.90;99.90;;;;;;5020125;28;20695;-73
2022/10/02 13:10:04;;;;;;;4.60;1.80;;;15.00;99.90;;;;;;5015925;28;20731;-75
2022/10/02 13:12:49;;;;;;;4.27;1.90;;;14.90;99.90;;;;;;5024170;28;20246;-73
2022/10/02 13:15:28;;;;;;;6.63;2.57;;;15.00;99.90;;;;;;5028937;28;20211;-74
2022/10/02 13:18:12;;;;;;;3.03;1.33;;;15.10;99.90;;;;;;5022309;28;20203;-73
2022/10/02 13:20:42;;;;;;;4.53;1.70;;;15.10;99.90;;;;;;5028849;28;20547;-74
2022/10/02 13:23:22;;;;;;;4.03;1.77;;;15.30;99.90;;;;;;5018835;28;20235;-74
2022/10/02 13:25:57;;;;;;;8.43;1.97;;;15.40;99.90;;;;;;5017070;28;20206;-75
2022/10/02 13:28:49;;;;;;;3.87;1.50;;;15.40;99.90;;;;;;5034067;28;20577;-73
2022/10/02 13:31:28;;;;;;;4.83;1.93;;;15.40;99.90;;;;;;5025487;28;20200;-73
2022/10/02 13:34:06;;;;;;;7.90;2.20;;;15.30;99.90;;;;;;5028165;28;20572;-73
2022/10/02 13:36:46;;;;;;;5.47;1.90;;;15.20;99.90;;;;;;5014789;28;20638;-74
2022/10/02 13:39:31;;;;;;;2.63;1.90;;;15.10;99.90;;;;;;5024128;28;20186;-74
2022/10/02 13:42:18;;;;;;;6.60;1.77;;;15.00;99.90;;;;;;5031290;28;20276;-73
2022/10/02 13:44:52;;;;;;;5.40;2.00;;;14.90;99.90;;;;;;5027910;28;20203;-73
2022/10/02 13:47:36;;;;;;;2.77;1.77;;;14.90;99.90;;;;;;5023314;28;20679;-75
2022/10/02 13:50:16;;;;;;;3.30;1.63;;;15.00;99.90;;;;;;5028694;28;20699;-73
2022/10/02 13:52:56;;;;;;;3.67;1.57;;;15.00;99.90;;;;;;5023057;28;20268;-73
2022/10/02 13:55:26;;;;;;;4.70;1.93;;;15.10;99.90;;;;;;5020130;28;20233;-73
2022/10/02 13:58:24;;;;;;;4.87;1.83;;;15.10;99.90;;;;;;5030819;28;20194;-73
2022/10/02 14:01:03;;;;;;;2.27;1.20;;;15.10;99.90;;;;;;5025780;28;20293;-73
2022/10/02 14:03:57;;;;;;;3.57;1.53;;;15.20;99.90;;;;;;5016479;28;20257;-72
2022/10/02 14:06:29;;;;;;;5.13;1.47;;;15.30;99.90;;;;;;5022429;28;20207;-74
2022/10/02 14:09:13;;;;;;;3.50;1.50;;;15.40;99.90;;;;;;5017227;28;20211;-74
2022/10/02 14:11:55;;;;;;;2.10;1.30;;;15.50;99.90;;;;;;5026811;28;20632;-73